CDT,Max TemperatureF,Mean TemperatureF,Min TemperatureF,Max Dew PointF,MeanDew PointF,Min DewpointF,Max Humidity, Mean Humidity, Min Humidity, Max Sea Level PressureIn, Mean Sea Level PressureIn, Min Sea Level PressureIn, Max VisibilityMiles, Mean VisibilityMiles, Min VisibilityMiles, Max Wind SpeedMPH, Mean Wind SpeedMPH, Max Gust SpeedMPH,PrecipitationIn, CloudCover, Events, WindDirDegrees
2013-7-1,78,63,48,53,48,45,89,60,31,30.26,30.21,30.17,10,9,6,14,4,17,0.00,0,,111
2013-7-2,82,63,44,51,47,42,93,62,30,30.23,30.16,30.08,10,9,6,14,4,17,0.00,0,,121
2013-7-3,88,69,50,52,46,42,83,52,21,30.09,29.96,29.83,10,10,7,15,6,21,0.00,0,,135
2013-7-4,93,76,59,53,49,46,75,48,21,29.88,29.82,29.75,10,10,10,21,9,25,T,0,,144
2013-7-5,94,78,61,60,53,47,65,46,26,29.78,29.72,29.66,10,10,10,21,11,33,0.00,0,,130
2013-7-6,98,82,66,64,59,55,69,50,30,29.73,29.68,29.65,10,10,10,17,7,24,0.00,0,,110
2013-7-7,94,78,62,68,64,61,87,63,39,29.99,29.83,29.74,10,10,6,35,10,45,T,1,Rain-Thunderstorm,58
2013-7-8,94,78,62,68,65,61,100,70,39,30.05,29.93,29.82,10,8,1,17,6,22,0.04,1,Rain,111
2013-7-9,99,80,60,68,65,61,93,63,33,30.03,29.91,29.85,10,10,4,20,6,25,0.00,0,,50
2013-7-10,85,73,60,65,61,57,90,67,44,30.14,30.05,29.96,10,10,9,18,7,23,0.03,1,Rain,112
2013-7-11,94,79,63,67,64,61,93,65,36,30.11,29.94,29.81,10,10,7,17,10,25,T,1,Thunderstorm,129
2013-7-12,102,86,70,69,63,57,74,49,24,29.84,29.79,29.72,10,10,10,17,10,23,0.00,0,,141
2013-7-13,102,87,71,70,64,59,74,51,27,29.87,29.81,29.75,10,10,10,18,8,28,0.00,0,,105
2013-7-14,84,77,69,68,66,62,79,69,58,30.12,29.96,29.79,10,10,6,30,9,38,T,5,Rain,112
2013-7-15,88,75,62,65,59,50,100,65,29,30.21,30.13,30.04,10,6,0,18,8,24,0.00,3,Fog,135
2013-7-16,88,76,64,60,59,56,87,62,37,30.25,30.15,30.11,10,10,10,20,11,26,0.00,5,,167
2013-7-17,89,76,63,61,59,56,90,64,37,30.25,30.17,30.07,10,10,10,23,12,31,0.00,1,,175
2013-7-18,94,81,68,63,61,60,81,57,33,30.09,29.96,29.84,10,10,10,24,11,33,0.00,0,,169
2013-7-19,94,79,64,65,58,51,87,57,26,30.00,29.92,29.88,10,10,10,22,9,30,0.00,0,,110
2013-7-20,90,75,59,65,60,55,87,64,41,30.07,29.91,29.80,10,9,2,33,9,41,0.54,3,Rain-Thunderstorm,84
2013-7-21,91,75,58,66,59,55,90,62,34,30.00,29.82,29.73,10,10,8,17,9,24,0.08,1,Rain-Thunderstorm,158
2013-7-22,91,77,63,65,61,57,87,64,41,29.96,29.81,29.75,10,10,2,22,9,28,0.15,2,Rain-Thunderstorm,71
2013-7-23,91,77,62,63,58,54,87,58,29,30.01,29.92,29.81,10,10,10,24,8,31,T,0,,76
2013-7-24,87,72,56,65,59,55,100,70,39,30.17,30.09,29.97,10,5,0,14,4,20,0.00,3,Fog,183
2013-7-25,82,72,62,66,60,53,93,71,49,30.09,30.01,29.94,10,8,0,39,8,59,1.02,4,Fog-Rain-Thunderstorm,216
2013-7-26,77,67,57,60,56,50,100,72,43,30.29,30.15,30.08,10,7,1,18,7,25,T,1,Rain-Thunderstorm,354
2013-7-27,65,60,55,54,52,50,93,80,67,30.18,30.12,30.05,10,10,2,20,7,23,0.01,6,Rain-Thunderstorm,105
2013-7-28,66,61,55,57,54,51,100,82,63,30.07,30.02,29.99,10,8,2,15,8,18,T,8,Rain,120
2013-7-29,73,66,58,63,59,57,100,84,68,30.04,29.99,29.94,10,6,1,10,4,14,0.02,7,Rain,119
2013-7-30,86,73,59,66,61,57,100,72,44,30.18,30.09,29.98,10,4,0,47,8,56,0.85,5,Fog-Rain-Thunderstorm,164
2013-7-31,84,73,61,67,63,56,90,74,58,30.22,30.12,30.06,10,10,10,16,6,20,0.00,2,,100